Main page
METAR-TAF:

METAR-TAF

Airports :

Passo Rolle, Italy

latitude: 46-18N, longitude: 011-47E, elevation: 2004 m

Current weather observation

The report was made 1 hour and 51 minutes ago, at 20:55 UTC
Wind 10 kt from the South
Temperature 6°C
Humidity 81%
Pressure 1016 hPa
Visibility: 0600 m
fog

METAR: LIVR 262055Z 17010KT 0600 FG VV/// 06/03 Q1016 RMK MON INVIS VIS MIN 0600

Time: 00:46 (22:46 UTC)


TAF: missing

Weather observations and forecasts of more than 4000 airports (METAR and TAF reports).

The available stations are represented by yellow and red dots on the map.

Hover mouse over dot to see the name of the station.

Then click to see weather observations and forecasts.

To change the map : click on the green buttons with a black cross to zoom in, on the green button with a dash to zoom out, or on the green arrows for adjacent maps.


METAR-TAF: